Tiempo atmosférico en la estación meteorológica de Banyalbufar, Illes Balears (60 m.)

Fecha
DESCASC
Temp. máxima en grados centígrados (hora)
DESCASC
Temp. mínima en grados centígrados (hora)
DESCASC
Temp. media en grados centígrados
DESCASC
Racha de viento máxima en m/sg (hora)
DESCASC
Velocidad máxima media en intervalos de 10 minutos(hora)
DESCASC
Precipitaciones diarias en mm
DESCASC
Precipitaciones de 00:00 a 06:00 en mm
DESCASC
Precipitaciones de 06:00 a 12:00 en mm
DESCASC
Precipitaciones de 12:00 a 18:00 en mm
DESCASC
Precipitaciones de 18:00 a 24:00 en mm
DESCASC
17-08-2017 30.2 (17:30) 23.9 (04:30) 27.1 6.67 (12:30) 3.61 (12:30) 0 0 0 0 0
16-08-2017 29.6 (13:20) 24.2 (04:40) 26.9 6.11 (15:00) 3.89 (14:50) 0 0 0 0 0
15-08-2017 29.4 (17:30) 22.4 (00:00) 25.9 6.39 (09:20) 3.61 (18:20) 0 0 0 0 0
14-08-2017 28.4 (15:10) 21.7 (07:00) 25.1 8.33 (17:40) 3.33 (16:50) 0 0 0 0 0
13-08-2017 27.3 (19:00) 20.9 (00:00) 24.1 5.28 (14:40) 3.33 (16:40) 0 0 0 0 0
12-08-2017 26.8 (17:10) 20.3 (00:00) 23.5 10.83 (01:30) 5.56 (02:10) 0 0 0 0 0
11-08-2017 25.1 (19:40) 19.1 (00:00) 22.1 9.72 (07:50) 6.67 (07:50) 0 0 0 0 0
10-08-2017 24.4 (15:20) 18.6 (00:00) 21.5 15.56 (02:30) 9.44 (01:40) 12 7.8 4.2 0 0
09-08-2017 27.5 (19:40) 21.6 (00:00) 24.6 10.28 (17:30) 6.67 (14:50) 0 0 0 0 0
08-08-2017 35 (01:40) 24.5 (00:00) 29.8 16.67 (03:00) 10 (02:10) 0 0 0 0 0
07-08-2017 31.9 (18:50) 23.9 (00:00) 27.9 11.11 (21:20) 5.83 (21:20) 0 0 0 0 0
06-08-2017 29.4 (08:20) 25.6 (00:00) 27.5 10 (12:40) 6.67 (11:00) 0 0 0 0 0
05-08-2017 32.2 (13:30) 25.3 (00:00) 28.8 7.22 (14:40) 4.17 (14:00) 0 0 0 0 0
04-08-2017 30.2 (19:40) 24.7 (00:00) 27.5 7.5 (13:10) 5 (13:10) 0 0 0 0 0
03-08-2017 36.1 (00:40) 27.8 (00:00) 31.9 17.5 (00:50) 9.72 (00:50) 0.2 0.2 0 0 0
02-08-2017 36.6 (03:50) 28.5 (00:00) 32.5 18.89 (23:40) 10.28 (23:20) 0 0 0 0 0
01-08-2017 36.3 (04:00) 26.6 (00:00) 31.4 15 (04:10) 5.28 (22:40) 0 0 0 0 0
31-07-2017 32.9 (23:00) 24.7 (00:00) 28.8 21.11 (23:00) 10.28 (23:00) 0 0 0 0 0
30-07-2017 30.4 (18:20) 23.7 (00:00) 27.1 6.39 (19:10) 3.33 (19:10) 0 0 0 0 0
29-07-2017 30.2 (09:30) 24.1 (00:00) 27.2 6.11 (16:30) 4.72 (15:40) 0 0 0 0 0
28-07-2017 30 (18:30) 23.8 (00:00) 26.9 6.67 (14:20) 4.44 (17:20) 0 0 0 0 0
27-07-2017 34.3 (19:10) 20.9 (00:00) 27.6 7.22 (20:00) 3.89 (20:00) 0 0 0 0 0
26-07-2017 27.3 (16:10) 21.5 (00:00) 24.4 10.56 (03:20) 6.39 (03:20) 0 0 0 0 0
25-07-2017 27.3 (19:10) 22.7 (00:00) 25 9.17 (18:40) 5.56 (02:20) 0 0 0 0 0
24-07-2017 30.3 (19:30) 22.4 (00:00) 26.3 5.56 (12:40) 3.89 (12:40) 0 0 0 0 0
23-07-2017 27.6 (12:40) 22.9 (00:00) 25.3 10.28 (11:40) 5.28 (11:40) 0 0 0 0 0
22-07-2017 28.6 (09:10) 22.9 (00:00) 25.8 5.83 (22:10) 2.5 (23:59) 0 0 0 0 0
21-07-2017 27.7 (15:30) 23.9 (00:00) 25.8 8.33 (02:40) 4.72 (02:50) 0 0 0 0 0
20-07-2017 28.3 (15:20) 24.2 (00:00) 26.3 10 (06:30) 5 (17:40) 0 0 0 0 0
19-07-2017 32.3 (15:50) 23.5 (00:00) 27.9 14.44 (13:10) 7.22 (13:00) 0 0 0 0 0

Gráficas

Temp. máximas Temp. mínimas Temp. medias Precipitaciones Rachas de viento máximas Velocidades máximas media en intervalos de 10 minutos

Datos horarios

Fecha y hora oficial Temperatura (ºC) Velocidad del viento (km/h) Dirección del viento Racha (km/h) Dirección de racha Precipitación (mm) Presión (hPa) Tendencia (hPa) Humedad (%)
2017-08-17 23:00:00 25.2 6 Sur 10 Sur 0 -- -- 71
2017-08-17 22:00:00 25.2 8 Sur 11 Sur 0 -- -- 75
2017-08-17 21:00:00 26.5 5 Sur 8 Noroeste 0 -- -- 75
2017-08-17 20:00:00 29.1 3 Oeste 10 Noroeste 0 -- -- 65
2017-08-17 19:00:00 29.4 6 Noroeste 13 Noroeste 0 -- -- 65
2017-08-17 18:00:00 29.5 5 Norte 9 Norte 0 -- -- 68
2017-08-17 17:00:00 29.7 5 Noroeste 11 Noroeste 0 -- -- 67
2017-08-17 16:00:00 29.3 6 Norte 15 Noroeste 0 -- -- 73
2017-08-17 15:00:00 28.8 7 Noroeste 14 Noroeste 0 -- -- 82
2017-08-17 14:00:00 28.1 6 Noroeste 15 Noroeste 0 -- -- 85
2017-08-17 13:00:00 27.8 9 Noroeste 24 Oeste 0 -- -- 87
2017-08-17 12:00:00 27.7 8 Noroeste 16 Oeste 0 -- -- 89
2017-08-17 11:00:00 27.5 6 Noroeste 16 Oeste 0 -- -- 90
2017-08-17 10:00:00 27.4 6 Oeste 10 Oeste 0 -- -- 89
2017-08-17 09:00:00 27.2 2 Sudoeste 8 Sur 0 -- -- 88
2017-08-17 08:00:00 24.1 4 Sudeste 11 Sur 0 -- -- 85
2017-08-17 07:00:00 24.2 4 Sudeste 10 Este 0 -- -- 93
2017-08-17 06:00:00 24.5 5 Sudeste 10 Sudeste 0 -- -- 86
2017-08-17 05:00:00 23.9 4 Sur 11 Sur 0 -- -- 84
2017-08-17 04:00:00 24.1 7 Sur 12 Sur 0 -- -- 90
2017-08-17 03:00:00 24.3 8 Sur 12 Sur 0 -- -- 91
2017-08-17 02:00:00 24.8 4 Sur 12 Sur 0 -- -- 89
2017-08-17 01:00:00 25.3 4 Sudeste 11 Oeste 0 -- -- 88
2017-08-17 00:00:00 25.5 3 Sudeste 9 Sur 0 -- -- 81
2017-08-16 23:00:00 25.5 6 Sur 12 Sur 0 -- -- 78
2017-08-16 22:00:00 25.7 2 Sudeste 5 Sur 0 -- -- 95
2017-08-16 21:00:00 26.3 2 Oeste 4 Noroeste 0 -- -- 95
2017-08-16 20:00:00 27.4 3 Norte 7 Norte 0 -- -- 90
2017-08-16 19:00:00 28.2 5 Norte 10 Norte 0 -- -- 87
2017-08-16 18:00:00 28.4 5 Norte 10 Norte 0 -- -- 85
2017-08-16 17:00:00 28.6 6 Norte 11 Norte 0 -- -- 85
2017-08-16 16:00:00 28.4 9 Norte 19 Noroeste 0 -- -- 87
2017-08-16 15:00:00 28.4 13 Oeste 22 Noroeste 0 -- -- 82
2017-08-16 14:00:00 29.1 12 Oeste 21 Oeste 0 -- -- 76
2017-08-16 13:00:00 28.1 10 Oeste 19 Oeste 0 -- -- 88
2017-08-16 12:00:00 27.9 5 Norte 10 Norte 0 -- -- 87
2017-08-16 11:00:00 27.8 4 Norte 7 Norte 0 -- -- 87
2017-08-16 10:00:00 27.6 4 Norte 15 Norte 0 -- -- 88
2017-08-16 09:00:00 27.2 7 Norte 15 Norte 0 -- -- 85
2017-08-16 08:00:00 24.8 6 Sudoeste 11 Sur 0 -- -- 77
2017-08-16 07:00:00 25.2 5 Sudeste 12 Este 0 -- -- 78
2017-08-16 06:00:00 24.8 8 Sur 11 Sur 0 -- -- 88
2017-08-16 05:00:00 24.5 5 Sudeste 11 Sur 0 -- -- 85
2017-08-16 04:00:00 24.5 8 Sur 12 Sur 0 -- -- 66
2017-08-16 03:00:00 25.4 7 Sur 12 Sudoeste 0 -- -- 67
2017-08-16 02:00:00 26 6 Sudoeste 14 Sudoeste 0 -- -- 65
2017-08-16 01:00:00 24.6 10 Sur 14 Sur 0 -- -- 86
2017-08-16 00:00:00 25.9 8 Sudeste 12 Este 0 -- -- 97
2017-08-15 23:00:00 26.2 7 Nordeste 13 Nordeste 0 -- -- 96
2017-08-15 22:00:00 26.3 6 Nordeste 10 Nordeste 0 -- -- 95
2017-08-15 21:00:00 26.3 0 Calma 8 Oeste 0 -- -- 93
2017-08-15 20:00:00 26.8 5 Oeste 18 Oeste 0 -- -- 90
2017-08-15 19:00:00 27.1 11 Oeste 22 Oeste 0 -- -- 84
2017-08-15 18:00:00 29 7 Noroeste 21 Noroeste 0 -- -- 73
2017-08-15 17:00:00 28.4 6 Norte 22 Norte 0 -- -- 72
2017-08-15 16:00:00 28.1 5 Norte 10 Oeste 0 -- -- 77
2017-08-15 15:00:00 27.5 5 Norte 12 Noroeste 0 -- -- 76
2017-08-15 14:00:00 27.7 8 Noroeste 13 Norte 0 -- -- 75
2017-08-15 13:00:00 27.6 5 Noroeste 10 Norte 0 -- -- 80
2017-08-15 12:00:00 27 4 Norte 11 Norte 0 -- -- 78
2017-08-15 11:00:00 26.7 7 Norte 13 Norte 0 -- -- 79
2017-08-15 10:00:00 26.7 7 Norte 23 Este 0 -- -- 77
2017-08-15 09:00:00 26.3 8 Este 19 Sudeste 0 -- -- 70
2017-08-15 08:00:00 24.7 10 Este 18 Sudeste 0 -- -- 66
2017-08-15 07:00:00 24.7 5 Este 19 Sudeste 0 -- -- 65
2017-08-15 06:00:00 23.6 9 Sudeste 17 Sudeste 0 -- -- 67
2017-08-15 05:00:00 22.5 10 Sur 14 Sur 0 -- -- 79
2017-08-15 04:00:00 22.7 8 Sur 14 Sur 0 -- -- 83
2017-08-15 03:00:00 22.6 8 Sur 15 Sur 0 -- -- 78
2017-08-15 02:00:00 22.7 9 Sur 16 Sur 0 -- -- 75
2017-08-15 01:00:00 24.4 4 Sudeste 17 Sur 0 -- -- 70
2017-08-15 00:00:00 23 7 Sur 17 Sur 0 -- -- 73
2017-08-14 23:00:00 22.8 12 Sur 14 Sur 0 -- -- 74
2017-08-14 22:00:00 24.9 6 Este 15 Este 0 -- -- 79
2017-08-14 21:00:00 25.4 0 Calma 7 Oeste 0 -- -- 76
2017-08-14 20:00:00 26.9 4 Noroeste 7 Noroeste 0 -- -- 71
2017-08-14 19:00:00 26.5 4 Norte 16 Noroeste 0 -- -- 72
2017-08-14 18:00:00 27 9 Noroeste 30 Oeste 0 -- -- 69
2017-08-14 17:00:00 27.8 12 Oeste 20 Oeste 0 -- -- 60
2017-08-14 16:00:00 28.3 9 Oeste 16 Oeste 0 -- -- 58
2017-08-14 15:00:00 28 4 Norte 13 Norte 0 -- -- 57
2017-08-14 14:00:00 27.2 5 Norte 10 Noroeste 0 -- -- 67
2017-08-14 13:00:00 26.2 8 Norte 11 Norte 0 -- -- 71
2017-08-14 12:00:00 26.1 6 Norte 11 Norte 0 -- -- 69
2017-08-14 11:00:00 25.8 6 Norte 14 Norte 0 -- -- 72
2017-08-14 10:00:00 25.5 9 Nordeste 19 Nordeste 0 -- -- 77
2017-08-14 09:00:00 25.4 3 Sudeste 9 Sur 0 -- -- 77
2017-08-14 08:00:00 22.4 5 Sudeste 11 Sur 0 -- -- 90
2017-08-14 07:00:00 21.7 8 Sur 11 Sur 0 -- -- 89
2017-08-14 06:00:00 22 7 Sur 14 Este 0 -- -- 86
2017-08-14 05:00:00 22.4 8 Sudeste 15 Sur 0 -- -- 83
2017-08-14 04:00:00 23 9 Sudeste 16 Sudeste 0 -- -- 79
2017-08-14 03:00:00 23.1 9 Sudeste 19 Sudeste 0 -- -- 71
2017-08-14 02:00:00 22.3 10 Sudeste 18 Este 0 -- -- 78
2017-08-14 01:00:00 22.2 6 Sur 17 Sudeste 0 -- -- 77
2017-08-14 00:00:00 22.5 7 Sur 13 Sur 0 -- -- 78
2017-08-13 23:00:00 23.1 7 Sur 10 Sur 0 -- -- 75
2017-08-13 22:00:00 23.2 9 Sudoeste 13 Sur 0 -- -- 76
2017-08-13 21:00:00 24.3 8 Sur 10 Norte 0 -- -- 70
2017-08-13 20:00:00 26.5 7 Norte 13 Norte 0 -- -- 63
2017-08-13 19:00:00 27.3 9 Norte 16 Norte 0 -- -- 61
2017-08-13 18:00:00 27 11 Norte 18 Norte 0 -- -- 62
2017-08-13 17:00:00 26.5 11 Norte 18 Norte 0 -- -- 69
2017-08-13 16:00:00 26.5 10 Norte 17 Norte 0 -- -- 69
2017-08-13 15:00:00 26.2 10 Norte 19 Norte 0 -- -- 66
2017-08-13 14:00:00 25.3 10 Norte 18 Norte 0 -- -- 74
2017-08-13 13:00:00 25.3 9 Norte 17 Norte 0 -- -- 72
2017-08-13 12:00:00 25.4 9 Norte 15 Norte 0 -- -- 71
2017-08-13 11:00:00 25.9 6 Norte 12 Norte 0 -- -- 70
2017-08-13 10:00:00 25.5 5 Nordeste 9 Norte 0 -- -- 70
2017-08-13 09:00:00 25.7 0 Calma 8 Sur 0 -- -- 75
2017-08-13 08:00:00 21.7 5 Sur 10 Sudeste 0 -- -- 90
2017-08-13 07:00:00 21.1 7 Sur 10 Sur 0 -- -- 91
2017-08-13 06:00:00 20.9 6 Sur 11 Sur 0 -- -- 92
2017-08-13 05:00:00 21.1 7 Sur 11 Sur 0 -- -- 90
2017-08-13 04:00:00 21.3 6 Sur 10 Sur 0 -- -- 89
2017-08-13 03:00:00 21.4 8 Sur 13 Sur 0 -- -- 88
2017-08-13 02:00:00 21.7 7 Sur 10 Sur 0 -- -- 84
2017-08-13 01:00:00 22 5 Sudeste 8 Sudeste 0 -- -- 84
2017-08-13 00:00:00 22 5 Sur 12 Sur 0 -- -- 84
2017-08-12 23:00:00 22.2 5 Sur 9 Sur 0 -- -- 78
2017-08-12 22:00:00 22.5 5 Sur 8 Sur 0 -- -- 76
2017-08-12 21:00:00 23.5 5 Sur 8 Sur 0 -- -- 72
2017-08-12 20:00:00 26.3 5 Norte 12 Norte 0 -- -- 62
2017-08-12 19:00:00 26.1 5 Norte 11 Norte 0 -- -- 62
2017-08-12 18:00:00 26 6 Norte 12 Norte 0 -- -- 63
2017-08-12 17:00:00 26.4 6 Norte 12 Noroeste 0 -- -- 64
2017-08-12 16:00:00 25.8 7 Norte 12 Norte 0 -- -- 66
2017-08-12 15:00:00 25.7 8 Norte 13 Noroeste 0 -- -- 66
2017-08-12 14:00:00 25.9 5 Norte 12 Noroeste 0 -- -- 64
2017-08-12 13:00:00 24.9 8 Norte 13 Norte 0 -- -- 68
2017-08-12 12:00:00 24.5 6 Norte 10 Norte 0 -- -- 70
2017-08-12 11:00:00 24.7 8 Norte 14 Norte 0 -- -- 70
2017-08-12 10:00:00 24.8 5 Noroeste 14 Sudeste 0 -- -- 66
2017-08-12 09:00:00 24.2 7 Sudeste 20 Sudeste 0 -- -- 68
2017-08-12 08:00:00 21.3 8 Sudeste 21 Sudeste 0 -- -- 81
2017-08-12 07:00:00 20.3 9 Sudeste 17 Sudeste 0 -- -- 82
2017-08-12 06:00:00 20.9 9 Sudeste 17 Sudeste 0 -- -- 82
2017-08-12 05:00:00 20.8 7 Sudeste 21 Este 0 -- -- 83
2017-08-12 04:00:00 21.4 9 Sudeste 27 Este 0 -- -- 84
2017-08-12 03:00:00 21.5 9 Este 33 Sudeste 0 -- -- 83
2017-08-12 02:00:00 21.6 14 Sudeste 39 Sudeste 0 -- -- 82
2017-08-12 01:00:00 21.9 15 Sudeste 31 Sudeste 0 -- -- 80
2017-08-12 00:00:00 21.7 9 Este 19 Este 0 -- -- 72
2017-08-11 23:00:00 20.6 6 Sur 12 Sudeste 0 -- -- 66
2017-08-11 22:00:00 21 5 Sur 10 Sur 0 -- -- 60
2017-08-11 21:00:00 21.7 6 Sur 12 Oeste 0 -- -- 58
2017-08-11 20:00:00 24.8 6 Oeste 13 Oeste 0 -- -- 43
2017-08-11 19:00:00 24.9 5 Noroeste 16 Oeste 0 -- -- 46
2017-08-11 18:00:00 24.5 9 Noroeste 18 Oeste 0 -- -- 51
2017-08-11 17:00:00 24.5 7 Noroeste 18 Noroeste 0 -- -- 54
2017-08-11 16:00:00 24.4 8 Noroeste 21 Noroeste 0 -- -- 57
2017-08-11 15:00:00 23.8 9 Noroeste 17 Noroeste 0 -- -- 58
2017-08-11 14:00:00 22.5 7 Noroeste 19 Noroeste 0 -- -- 62
2017-08-11 13:00:00 23.7 9 Norte 19 Norte 0 -- -- 58
2017-08-11 12:00:00 23.1 11 Norte 21 Noroeste 0 -- -- 60
2017-08-11 11:00:00 22.3 9 Noroeste 26 Noroeste 0 -- -- 63
2017-08-11 10:00:00 22.1 15 Norte 26 Noroeste 0 -- -- 65
2017-08-11 09:00:00 22.2 15 Norte 29 Norte 0 -- -- 67
2017-08-11 08:00:00 22 23 Norte 35 Norte 0 -- -- 68
2017-08-11 07:00:00 22.8 15 Noroeste 30 Norte 0 -- -- 67
2017-08-11 06:00:00 22.7 19 Norte 28 Norte 0 -- -- 65
2017-08-11 05:00:00 22.7 10 Noroeste 19 Oeste 0 -- -- 67
2017-08-11 04:00:00 21.9 12 Sur 22 Sudoeste 0 -- -- 75
2017-08-11 03:00:00 20.7 12 Sudoeste 19 Sudoeste 0 -- -- 74
2017-08-11 02:00:00 19.9 12 Sur 19 Sur 0 -- -- 70
2017-08-11 01:00:00 19.2 12 Sur 18 Sur 0 -- -- 67
2017-08-11 00:00:00 19.8 7 Sur 16 Sur 0 -- -- 69
2017-08-10 23:00:00 21.1 12 Sur 20 Sur 0 -- -- 72
2017-08-10 22:00:00 21.6 10 Sudeste 16 Sudeste 0 -- -- 72
2017-08-10 21:00:00 22 4 Este 15 Oeste 0 -- -- 79
2017-08-10 20:00:00 24.1 4 Noroeste 15 Noroeste 0 -- -- 71
2017-08-10 19:00:00 24 8 Noroeste 16 Norte 0 -- -- 71
2017-08-10 18:00:00 23.9 9 Noroeste 19 Noroeste 0 -- -- 71
2017-08-10 17:00:00 24 10 Oeste 20 Noroeste 0 -- -- 71
2017-08-10 16:00:00 24.1 9 Noroeste 17 Noroeste 0 -- -- 70
2017-08-10 15:00:00 24 8 Oeste 16 Oeste 0 -- -- 69
2017-08-10 14:00:00 23.4 4 Norte 15 Sudeste 0 -- -- 74
2017-08-10 13:00:00 22.1 8 Sudeste 18 Sudeste 0 -- -- 80
2017-08-10 12:00:00 21.7 3 Sudeste 19 Norte 0 -- -- 82
2017-08-10 11:00:00 20.5 3 Este 13 Este 0 -- -- 89
2017-08-10 10:00:00 19.3 6 Sudeste 30 Sudeste 0 -- -- 95
2017-08-10 09:00:00 18.6 10 Sudeste 40 Norte 3 -- -- 100
2017-08-10 08:00:00 19.6 9 Este 27 Este 0 -- -- 93
2017-08-10 07:00:00 18.9 14 Sudeste 32 Nordeste 1.2 -- -- 99
2017-08-10 06:00:00 19.6 13 Sudeste 45 Este 0.2 -- -- 90
2017-08-10 05:00:00 19 11 Este 37 Este 2 -- -- 98
2017-08-10 04:00:00 19 14 Este 42 Nordeste 3.2 -- -- 97
2017-08-10 03:00:00 19.9 9 Sudeste 56 Norte 2.4 -- -- 91
2017-08-10 02:00:00 21.6 26 Nordeste 54 Nordeste 0 -- -- 84
2017-08-10 01:00:00 23.6 29 Nordeste 51 Nordeste 0 -- -- 76
2017-08-10 00:00:00 24.2 13 Sudeste 31 Este 0 -- -- 64
2017-08-09 23:00:00 24.6 14 Este 31 Este 0 -- -- 61
2017-08-09 22:00:00 24.6 13 Este 31 Nordeste 0 -- -- 62
2017-08-09 21:00:00 25.5 11 Sudeste 32 Este 0 -- -- 61
2017-08-09 20:00:00 26.7 13 Nordeste 27 Este 0 -- -- 62
2017-08-09 19:00:00 26.4 10 Nordeste 29 Nordeste 0 -- -- 70
2017-08-09 18:00:00 25.4 22 Nordeste 37 Nordeste 0 -- -- 79
2017-08-09 17:00:00 26.6 22 Nordeste 36 Nordeste 0 -- -- 72
2017-08-09 16:00:00 26.3 21 Nordeste 35 Nordeste 0 -- -- 76
2017-08-09 15:00:00 26.2 22 Nordeste 35 Nordeste 0 -- -- 75
2017-08-09 14:00:00 26.2 18 Nordeste 30 Nordeste 0 -- -- 73
2017-08-09 13:00:00 25.9 12 Nordeste 23 Nordeste 0 -- -- 73
2017-08-09 12:00:00 26.1 10 Norte 24 Norte 0 -- -- 69
2017-08-09 11:00:00 26.4 11 Norte 27 Este 0 -- -- 68
2017-08-09 10:00:00 26.4 12 Sudeste 32 Sudeste 0 -- -- 63
2017-08-09 09:00:00 25.1 17 Sudeste 31 Sudeste 0 -- -- 69
2017-08-09 08:00:00 23.3 13 Sudeste 31 Sudeste 0 -- -- 77
2017-08-09 07:00:00 22.1 10 Sudoeste 15 Sur 0 -- -- 86
2017-08-09 06:00:00 22 6 Sudeste 13 Sur 0 -- -- 89
2017-08-09 05:00:00 22.4 5 Sur 14 Sudeste 0 -- -- 89
2017-08-09 04:00:00 22.7 8 Sudeste 13 Sudeste 0 -- -- 87
2017-08-09 03:00:00 23.4 6 Sudeste 13 Sudeste 0 -- -- 86
2017-08-09 02:00:00 24 8 Sudeste 21 Este 0 -- -- 85
2017-08-09 01:00:00 24.5 10 Nordeste 21 Nordeste 0 -- -- 86
2017-08-09 00:00:00 24.7 6 Nordeste 25 Nordeste 0 -- -- 89
2017-08-08 23:00:00 24.9 12 Nordeste 31 Nordeste 0 -- -- 90
2017-08-08 22:00:00 24.9 19 Nordeste 35 Nordeste 0 -- -- 94
2017-08-08 21:00:00 25 16 Nordeste 41 Nordeste 0 -- -- 95
2017-08-08 20:00:00 25.3 26 Nordeste 45 Nordeste 0 -- -- 95
2017-08-08 19:00:00 25.5 24 Nordeste 44 Nordeste 0 -- -- 96
2017-08-08 18:00:00 26.7 22 Nordeste 38 Nordeste 0 -- -- 93
2017-08-08 17:00:00 26.4 24 Nordeste 36 Nordeste 0 -- -- 97
2017-08-08 16:00:00 29.1 15 Nordeste 22 Nordeste 0 -- -- 81
2017-08-08 15:00:00 29.7 13 Nordeste 18 Nordeste 0 -- -- 80
2017-08-08 14:00:00 29.7 10 Norte 17 Norte 0 -- -- 81
2017-08-08 13:00:00 29.7 7 Norte 15 Norte 0 -- -- 73
2017-08-08 12:00:00 29.5 6 Nordeste 14 Norte 0 -- -- 79
2017-08-08 11:00:00 28.6 10 Norte 20 Norte 0 -- -- 83
2017-08-08 10:00:00 28.4 9 Nordeste 23 Norte 0 -- -- 82
2017-08-08 09:00:00 29.2 5 Sur 13 Noroeste 0 -- -- 67
2017-08-08 08:00:00 28.1 7 Sudoeste 32 Norte 0 -- -- 71
2017-08-08 07:00:00 29.4 18 Nordeste 50 Sur 0 -- -- 61
2017-08-08 06:00:00 28.9 12 Sur 40 Sudeste 0 -- -- 45
2017-08-08 05:00:00 30.6 22 Sur 58 Sur 0 -- -- 39
2017-08-08 04:00:00 31.5 15 Sudeste 57 Sur 0 -- -- 41
2017-08-08 03:00:00 33.6 36 Sur 60 Sur 0 -- -- 25
2017-08-08 02:00:00 34.3 33 Sur 58 Sur 0 -- -- 22
2017-08-08 01:00:00 29.7 4 Nordeste 22 Sur 0 -- -- 44
2017-08-08 00:00:00 28.2 4 Sudeste 12 Sur 0 -- -- 53
2017-08-07 23:00:00 28.3 6 Este 36 Sudoeste 0 -- -- 61
2017-08-07 22:00:00 28.6 4 Sur 40 Sudoeste 0 -- -- 55
2017-08-07 21:00:00 29.7 9 Sudoeste 39 Sur 0 -- -- 47
2017-08-07 20:00:00 30.4 6 Norte 17 Norte 0 -- -- 61
2017-08-07 19:00:00 30.9 6 Norte 19 Sudoeste 0 -- -- 66
2017-08-07 18:00:00 29.6 13 Norte 22 Norte 0 -- -- 82
2017-08-07 17:00:00 28.6 11 Norte 22 Norte 0 -- -- 81
2017-08-07 16:00:00 28.6 14 Norte 28 Norte 0 -- -- 81
2017-08-07 15:00:00 28.9 13 Norte 22 Norte 0 -- -- 80
2017-08-07 14:00:00 28.6 8 Norte 13 Norte 0 -- -- 82
2017-08-07 13:00:00 28.6 7 Norte 12 Norte 0 -- -- 81
2017-08-07 12:00:00 28.6 5 Noroeste 14 Oeste 0 -- -- 80
2017-08-07 11:00:00 28.1 6 Noroeste 19 Sudoeste 0 -- -- 83
2017-08-07 10:00:00 27.7 10 Oeste 17 Oeste 0 -- -- 88
2017-08-07 09:00:00 27.4 7 Oeste 13 Sudoeste 0 -- -- 88
2017-08-07 08:00:00 25.2 4 Sur 11 Sur 0 -- -- 84
2017-08-07 07:00:00 23.9 9 Sur 13 Sur 0 -- -- 83
2017-08-07 06:00:00 24.3 7 Sur 10 Sur 0 -- -- 82
2017-08-07 05:00:00 24.9 4 Sudeste 10 Sur 0 -- -- 83
2017-08-07 04:00:00 24.7 6 Sudeste 12 Sur 0 -- -- 80
2017-08-07 03:00:00 24.8 5 Sur 13 Sur 0 -- -- 78
2017-08-07 02:00:00 25 8 Sur 12 Sur 0 -- -- 77
2017-08-07 01:00:00 25.2 6 Sur 10 Sur 0 -- -- 77
2017-08-07 00:00:00 25.6 8 Sur 12 Sur 0 -- -- 78
2017-08-06 23:00:00 25.8 9 Sur 12 Sur 0 -- -- 80
2017-08-06 22:00:00 26.4 6 Sur 8 Sur 0 -- -- 80
2017-08-06 21:00:00 27.4 4 Sur 5 Sur 0 -- -- 79
2017-08-06 20:00:00 28.9 3 Norte 13 Norte 0 -- -- 77
2017-08-06 19:00:00 28.4 10 Norte 18 Norte 0 -- -- 81
2017-08-06 18:00:00 28.3 14 Norte 25 Norte 0 -- -- 81
2017-08-06 17:00:00 29 12 Norte 21 Norte 0 -- -- 79
2017-08-06 16:00:00 29.1 12 Norte 28 Nordeste 0 -- -- 77
2017-08-06 15:00:00 28.9 16 Nordeste 28 Nordeste 0 -- -- 76
2017-08-06 14:00:00 28.1 18 Nordeste 36 Nordeste 0 -- -- 84
2017-08-06 13:00:00 28.1 18 Nordeste 36 Nordeste 0 -- -- 82
2017-08-06 12:00:00 28.7 19 Nordeste 33 Nordeste 0 -- -- 73
2017-08-06 11:00:00 27.7 24 Nordeste 36 Nordeste 0 -- -- 79
2017-08-06 10:00:00 27.7 21 Nordeste 35 Norte 0 -- -- 81
2017-08-06 09:00:00 27.5 14 Nordeste 26 Nordeste 0 -- -- 81
2017-08-06 08:00:00 28.5 3 Este 20 Sudeste 0 -- -- 62
2017-08-06 07:00:00 27.1 8 Sudeste 14 Este 0 -- -- 63
2017-08-06 06:00:00 28.6 7 Sudeste 21 Este 0 -- -- 55
2017-08-06 05:00:00 28.2 7 Oeste 13 Sudoeste 0 -- -- 73
2017-08-06 04:00:00 28 5 Sudoeste 13 Sudoeste 0 -- -- 71
2017-08-06 03:00:00 26.8 4 Sur 13 Sur 0 -- -- 75
2017-08-06 02:00:00 27.4 8 Sudoeste 12 Sudoeste 0 -- -- 73
2017-08-06 01:00:00 26.4 7 Sur 14 Sur 0 -- -- 85
2017-08-06 00:00:00 26.3 9 Sur 12 Sur 0 -- -- 86
2017-08-05 23:00:00 27.1 4 Sur 9 Sudeste 0 -- -- 89
2017-08-05 22:00:00 27.5 4 Sur 8 Sur 0 -- -- 87
2017-08-05 21:00:00 28.2 2 Oeste 10 Norte 0 -- -- 85
2017-08-05 20:00:00 30 6 Noroeste 15 Noroeste 0 -- -- 79
2017-08-05 19:00:00 31 5 Noroeste 15 Noroeste 0 -- -- 75
2017-08-05 18:00:00 31.3 7 Noroeste 17 Oeste 0 -- -- 72
2017-08-05 17:00:00 31.3 11 Oeste 22 Oeste 0 -- -- 72
2017-08-05 16:00:00 30.9 13 Oeste 23 Oeste 0 -- -- 70
2017-08-05 15:00:00 31.8 11 Oeste 26 Sudoeste 0 -- -- 61
2017-08-05 14:00:00 30.4 15 Oeste 22 Oeste 0 -- -- 73
2017-08-05 13:00:00 29.9 7 Noroeste 21 Oeste 0 -- -- 87
2017-08-05 12:00:00 28.9 10 Oeste 21 Noroeste 0 -- -- 94
2017-08-05 11:00:00 29.7 6 Noroeste 11 Oeste 0 -- -- 84
2017-08-05 10:00:00 29.1 3 Noroeste 10 Noroeste 0 -- -- 86
2017-08-05 09:00:00 29.1 3 Noroeste 8 Oeste 0 -- -- 88
2017-08-05 08:00:00 26.8 5 Oeste 10 Oeste 0 -- -- 97
2017-08-05 07:00:00 25.3 4 Sudoeste 8 Oeste 0 -- -- 97
2017-08-05 06:00:00 25.5 4 Sur 9 Sur 0 -- -- 80
2017-08-05 05:00:00 26.2 3 Sudoeste 6 Sudoeste 0 -- -- 70
2017-08-05 04:00:00 25.9 4 Sur 9 Sur 0 -- -- 70
2017-08-05 03:00:00 26.1 4 Sur 8 Sur 0 -- -- 69
2017-08-05 02:00:00 26.4 2 Sur 6 Sur 0 -- -- 73
2017-08-05 01:00:00 27 3 Sur 7 Sur 0 -- -- 76
2017-08-05 00:00:00 26.6 4 Sur 8 Norte 0 -- -- 95
2017-08-04 23:00:00 28.4 0 Calma 8 Sudoeste 0 -- -- 78
2017-08-04 22:00:00 28.3 4 Sudoeste 7 Sur 0 -- -- 81
2017-08-04 21:00:00 28.6 7 Oeste 13 Noroeste 0 -- -- 82
2017-08-04 20:00:00 29.9 7 Noroeste 15 Norte 0 -- -- 81
2017-08-04 19:00:00 30 7 Norte 21 Norte 0 -- -- 80
2017-08-04 18:00:00 29.7 10 Nordeste 22 Nordeste 0 -- -- 82
2017-08-04 17:00:00 29.7 12 Norte 22 Nordeste 0 -- -- 83
2017-08-04 16:00:00 30.1 8 Norte 26 Nordeste 0 -- -- 82
2017-08-04 15:00:00 29.4 15 Nordeste 26 Nordeste 0 -- -- 82
2017-08-04 14:00:00 29.4 13 Norte 27 Nordeste 0 -- -- 83
2017-08-04 13:00:00 28.8 17 Nordeste 26 Nordeste 0 -- -- 94
2017-08-04 12:00:00 28.4 14 Norte 21 Norte 0 -- -- 96
2017-08-04 11:00:00 28.3 6 Norte 16 Nordeste 0 -- -- 94
2017-08-04 10:00:00 28.4 5 Norte 8 Norte 0 -- -- 93
2017-08-04 09:00:00 28.7 2 Norte 6 Sur 0 -- -- 89
2017-08-04 08:00:00 26.3 2 Sudeste 9 Sur 0 -- -- 85
2017-08-04 07:00:00 25 5 Sur 10 Sur 0 -- -- 75
2017-08-04 06:00:00 25 6 Sur 11 Sur 0 -- -- 82
2017-08-04 05:00:00 25.2 8 Sur 13 Sur 0 -- -- 79
2017-08-04 04:00:00 25.8 7 Sur 12 Sudoeste 0 -- -- 80
2017-08-04 03:00:00 26.5 4 Sur 11 Sur 0 -- -- 70
2017-08-04 02:00:00 27.1 7 Sur 12 Sur 0 -- -- 55
2017-08-04 01:00:00 27.6 7 Sur 10 Sur 0 -- -- 57
2017-08-04 00:00:00 28 4 Sur 12 Sur 0 -- -- 62
2017-08-03 23:00:00 27.9 8 Sur 13 Sur 0 -- -- 66
2017-08-03 22:00:00 28.1 8 Sur 10 Sur 0 -- -- 67
2017-08-03 21:00:00 29.5 2 Sudeste 6 Oeste 0 -- -- 78
2017-08-03 20:00:00 31 4 Noroeste 10 Noroeste 0 -- -- 72
2017-08-03 19:00:00 30.1 4 Noroeste 20 Oeste 0 -- -- 87
2017-08-03 18:00:00 33.3 5 Noroeste 15 Oeste 0 -- -- 61
2017-08-03 17:00:00 34.4 5 Noroeste 10 Oeste 0 -- -- 45
2017-08-03 16:00:00 34.1 6 Noroeste 15 Norte 0 -- -- 51
2017-08-03 15:00:00 33.4 8 Norte 15 Norte 0 -- -- 51
2017-08-03 14:00:00 32.9 7 Norte 13 Norte 0 -- -- 53
2017-08-03 13:00:00 32.5 4 Norte 10 Noroeste 0 -- -- 55
2017-08-03 12:00:00 32.7 4 Noroeste 10 Norte 0 -- -- 52
2017-08-03 11:00:00 31.4 4 Norte 24 Oeste 0 -- -- 66
2017-08-03 10:00:00 33.7 6 Oeste 15 Oeste 0 -- -- 39
2017-08-03 09:00:00 32.2 4 Sur 13 Sur 0 -- -- 39
2017-08-03 08:00:00 32.1 4 Sudoeste 23 Sudeste 0 -- -- 38
2017-08-03 07:00:00 30.3 10 Sudeste 24 Sudeste 0 -- -- 47
2017-08-03 06:00:00 29.1 8 Sudeste 24 Oeste 0 -- -- 64
2017-08-03 05:00:00 29.9 9 Sudoeste 37 Sudeste 0 -- -- 66
2017-08-03 04:00:00 28.8 15 Sudeste 26 Sudeste 0.2 -- -- 76
2017-08-03 03:00:00 28.3 4 Oeste 13 Este 0 -- -- 91
2017-08-03 02:00:00 29.4 10 Oeste 50 Sudeste 0 -- -- 78
2017-08-03 01:00:00 35.2 29 Sudeste 63 Sudeste 0 -- -- 27
2017-08-03 00:00:00 34.8 33 Sudeste 68 Sudeste 0 -- -- 31
2017-08-02 23:00:00 34.6 35 Sudeste 64 Sudeste 0 -- -- 36
2017-08-02 22:00:00 34.2 18 Sudeste 33 Sudeste 0 -- -- 41
2017-08-02 21:00:00 28.6 5 Sudoeste 17 Nordeste 0 -- -- 93
2017-08-02 20:00:00 29.3 6 Nordeste 20 Norte 0 -- -- 89
2017-08-02 19:00:00 34.1 2 Este 9 Nordeste 0 -- -- 46
2017-08-02 18:00:00 32.2 5 Este 9 Este 0 -- -- 64
2017-08-02 17:00:00 30.6 3 Noroeste 8 Norte 0 -- -- 86
2017-08-02 16:00:00 31.1 4 Norte 19 Oeste 0 -- -- 80
2017-08-02 15:00:00 32.6 11 Oeste 21 Oeste 0 -- -- 64
2017-08-02 14:00:00 34 4 Norte 19 Norte 0 -- -- 49
2017-08-02 13:00:00 33.8 12 Nordeste 31 Nordeste 0 -- -- 45
2017-08-02 12:00:00 34.1 10 Nordeste 16 Nordeste 0 -- -- 45
2017-08-02 11:00:00 31.8 6 Nordeste 10 Nordeste 0 -- -- 58
2017-08-02 10:00:00 30.4 5 Nordeste 26 Norte 0 -- -- 66
2017-08-02 09:00:00 32.1 21 Norte 46 Sur 0 -- -- 48
2017-08-02 08:00:00 34.5 22 Sur 42 Sur 0 -- -- 30
2017-08-02 07:00:00 34.1 29 Sur 45 Sur 0 -- -- 30
2017-08-02 06:00:00 35 22 Sudeste 45 Sudeste 0 -- -- 28
2017-08-02 05:00:00 35.8 17 Sudeste 42 Sudeste 0 -- -- 25
2017-08-02 04:00:00 36.4 15 Sudeste 42 Sudeste 0 -- -- 24
2017-08-02 03:00:00 34.4 22 Sudeste 48 Sudeste 0 -- -- 29
2017-08-02 02:00:00 34.3 33 Sudeste 60 Sudeste 0 -- -- 30
2017-08-02 01:00:00 33.9 25 Sudeste 40 Sudeste 0 -- -- 31
2017-08-02 00:00:00 30.9 9 Sudeste 24 Oeste 0 -- -- 39
2017-08-01 23:00:00 33.2 8 Sudeste 38 Sudeste 0 -- -- 34
2017-08-01 22:00:00 31.6 9 Sudeste 26 Sudeste 0 -- -- 42
2017-08-01 21:00:00 31.1 10 Noroeste 25 Sudeste 0 -- -- 70
2017-08-01 20:00:00 32 12 Sudeste 28 Sudeste 0 -- -- 50
2017-08-01 19:00:00 28.2 17 Nordeste 25 Nordeste 0 -- -- 100
2017-08-01 18:00:00 29.1 11 Norte 28 Nordeste 0 -- -- 97
2017-08-01 17:00:00 28.2 13 Nordeste 22 Nordeste 0 -- -- 100
2017-08-01 16:00:00 28 6 Noroeste 14 Noroeste 0 -- -- 100
2017-08-01 15:00:00 29.4 4 Norte 13 Noroeste 0 -- -- 94
2017-08-01 14:00:00 28.9 7 Norte 19 Norte 0 -- -- 100
2017-08-01 13:00:00 28.1 13 Norte 29 Norte 0 -- -- 100
2017-08-01 12:00:00 28.1 7 Norte 12 Norte 0 -- -- 100
2017-08-01 11:00:00 28 5 Norte 13 Norte 0 -- -- 100
2017-08-01 10:00:00 27.5 3 Noroeste 18 Oeste 0 -- -- 100
2017-08-01 09:00:00 28.1 4 Norte 9 Nordeste 0 -- -- 100
2017-08-01 08:00:00 27.3 2 Nordeste 10 Sudoeste 0 -- -- 100
2017-08-01 07:00:00 27 8 Norte 24 Noroeste 0 -- -- 100
2017-08-01 06:00:00 27.1 10 Este 24 Norte 0 -- -- 98
2017-08-01 05:00:00 28 9 Oeste 54 Oeste 0 -- -- 83
2017-08-01 04:00:00 36.3 15 Sur 31 Sudoeste 0 -- -- 21
2017-08-01 03:00:00 28.4 6 Sudeste 24 Oeste 0 -- -- 65
2017-08-01 02:00:00 28.2 8 Sudoeste 21 Sudoeste 0 -- -- 68
2017-08-01 01:00:00 28.1 5 Sudoeste 28 Sudoeste 0 -- -- 64
2017-08-01 00:00:00 28.9 8 Noroeste 68 Sudoeste 0 -- -- 68
2017-07-31 23:00:00 32.9 37 Sudeste 76 Sudeste 0 -- -- 33
2017-07-31 22:00:00 26.2 4 Sudoeste 16 Noroeste 0 -- -- 100
2017-07-31 21:00:00 26.8 6 Norte 10 Norte 0 -- -- 100
2017-07-31 20:00:00 27.4 5 Norte 10 Nordeste 0 -- -- 99
2017-07-31 19:00:00 27.5 5 Norte 17 Noroeste 0 -- -- 97
2017-07-31 18:00:00 28.4 9 Noroeste 26 Norte 0 -- -- 92
2017-07-31 17:00:00 28.2 5 Norte 10 Norte 0 -- -- 94
2017-07-31 16:00:00 29 6 Norte 12 Norte 0 -- -- 89
2017-07-31 15:00:00 28.8 6 Norte 10 Norte 0 -- -- 90
2017-07-31 14:00:00 28.4 5 Norte 10 Norte 0 -- -- 93
2017-07-31 13:00:00 27.9 9 Norte 19 Norte 0 -- -- 95
2017-07-31 12:00:00 27.7 7 Norte 14 Norte 0 -- -- 95
2017-07-31 11:00:00 27.8 6 Norte 17 Norte 0 -- -- 94
2017-07-31 10:00:00 27.7 7 Norte 14 Norte 0 -- -- 94
2017-07-31 09:00:00 27.3 7 Nordeste 13 Nordeste 0 -- -- 95
2017-07-31 08:00:00 26.2 5 Este 12 Nordeste 0 -- -- 99
2017-07-31 07:00:00 26 5 Este 14 Este 0 -- -- 100
2017-07-31 06:00:00 26 4 Este 13 Nordeste 0 -- -- 100
2017-07-31 05:00:00 26.1 3 Sudeste 12 Este 0 -- -- 100
2017-07-31 04:00:00 26.1 7 Sudeste 15 Sudeste 0 -- -- 98
2017-07-31 03:00:00 26 6 Sudeste 13 Sur 0 -- -- 84
2017-07-31 02:00:00 24.8 7 Sur 14 Sur 0 -- -- 87
2017-07-31 01:00:00 24.9 7 Sudoeste 10 Sur 0 -- -- 92
2017-07-31 00:00:00 26.1 5 Sudeste 13 Sudeste 0 -- -- 90
2017-07-30 23:00:00 26.3 3 Oeste 8 Sudoeste 0 -- -- 89
2017-07-30 22:00:00 26.5 3 Sudoeste 9 Oeste 0 -- -- 84
2017-07-30 21:00:00 28.2 2 Noroeste 5 Noroeste 0 -- -- 76
2017-07-30 20:00:00 29.8 3 Noroeste 23 Noroeste 0 -- -- 70
2017-07-30 19:00:00 30.3 9 Norte 22 Nordeste 0 -- -- 58
2017-07-30 18:00:00 29.6 7 Norte 14 Norte 0 -- -- 68
2017-07-30 17:00:00 29.8 6 Norte 10 Norte 0 -- -- 68
2017-07-30 16:00:00 29.6 5 Norte 12 Norte 0 -- -- 72
2017-07-30 15:00:00 29.5 6 Norte 12 Norte 0 -- -- 72
2017-07-30 14:00:00 29.4 7 Noroeste 13 Noroeste 0 -- -- 73
2017-07-30 13:00:00 29.5 6 Noroeste 13 Noroeste 0 -- -- 71
2017-07-30 12:00:00 29.2 5 Norte 8 Norte 0 -- -- 70
2017-07-30 11:00:00 28.7 4 Noroeste 8 Noroeste 0 -- -- 68
2017-07-30 10:00:00 28.4 6 Oeste 14 Oeste 0 -- -- 68
2017-07-30 09:00:00 29.2 2 Noroeste 13 Sudoeste 0 -- -- 53
2017-07-30 08:00:00 25.6 5 Sudoeste 13 Sur 0 -- -- 58
2017-07-30 07:00:00 23.9 7 Sur 12 Sur 0 -- -- 60
2017-07-30 06:00:00 23.7 9 Sur 15 Sur 0 -- -- 61
2017-07-30 05:00:00 23.8 7 Sur 14 Sur 0 -- -- 66
2017-07-30 04:00:00 24.3 6 Sur 12 Sur 0 -- -- 70
2017-07-30 03:00:00 25.2 8 Sudeste 12 Sudeste 0 -- -- 65
2017-07-30 02:00:00 25.5 5 Sur 13 Sur 0 -- -- 62
2017-07-30 01:00:00 25.7 5 Sudeste 11 Sur 0 -- -- 61
2017-07-30 00:00:00 25.6 8 Sur 12 Sur 0 -- -- 56
2017-07-29 23:00:00 26.4 6 Sur 10 Sur 0 -- -- 54
2017-07-29 22:00:00 26 5 Sur 10 Sur 0 -- -- 63
2017-07-29 21:00:00 27.6 3 Nordeste 14 Noroeste 0 -- -- 72
2017-07-29 20:00:00 28.4 8 Nordeste 15 Nordeste 0 -- -- 70
2017-07-29 19:00:00 29 11 Norte 21 Norte 0 -- -- 68
2017-07-29 18:00:00 29.7 10 Norte 22 Norte 0 -- -- 67
2017-07-29 17:00:00 29.4 14 Norte 22 Norte 0 -- -- 65
2017-07-29 16:00:00 28.6 15 Norte 22 Norte 0 -- -- 67
2017-07-29 15:00:00 29.6 12 Nordeste 21 Nordeste 0 -- -- 63
2017-07-29 14:00:00 29.3 8 Nordeste 13 Nordeste 0 -- -- 73
2017-07-29 13:00:00 28.7 6 Norte 11 Oeste 0 -- -- 70
2017-07-29 12:00:00 29.3 6 Noroeste 15 Noroeste 0 -- -- 62
2017-07-29 11:00:00 29.5 6 Noroeste 11 Oeste 0 -- -- 48
2017-07-29 10:00:00 29.4 2 Norte 5 Norte 0 -- -- 46
2017-07-29 09:00:00 28.5 0 Calma 9 Sur 0 -- -- 51
2017-07-29 08:00:00 25.6 3 Sur 10 Sur 0 -- -- 52
2017-07-29 07:00:00 25.2 5 Sudeste 12 Sudeste 0 -- -- 52
2017-07-29 06:00:00 24.9 4 Sur 12 Sur 0 -- -- 51
2017-07-29 05:00:00 24.3 8 Sur 15 Sur 0 -- -- 47
2017-07-29 04:00:00 24.4 9 Sur 14 Sur 0 -- -- 49
2017-07-29 03:00:00 24.3 9 Sur 14 Sur 0 -- -- 50
2017-07-29 02:00:00 24.8 9 Sur 14 Sur 0 -- -- 51
2017-07-29 01:00:00 25 6 Sur 16 Sur 0 -- -- 55
2017-07-29 00:00:00 25 8 Sur 13 Sur 0 -- -- 58
2017-07-28 23:00:00 25.2 4 Sur 11 Sur 0 -- -- 64
2017-07-28 22:00:00 25.4 6 Sur 10 Sur 0 -- -- 68
2017-07-28 21:00:00 27.2 3 Norte 10 Nordeste 0 -- -- 74
2017-07-28 20:00:00 27.6 4 Norte 16 Norte 0 -- -- 72
2017-07-28 19:00:00 29.1 11 Norte 22 Norte 0 -- -- 72
2017-07-28 18:00:00 29.1 14 Norte 23 Norte 0 -- -- 65
2017-07-28 17:00:00 29.3 13 Norte 20 Norte 0 -- -- 69
2017-07-28 16:00:00 29.6 10 Norte 14 Norte 0 -- -- 70
2017-07-28 15:00:00 28.9 12 Norte 24 Norte 0 -- -- 74
2017-07-28 14:00:00 28.8 12 Norte 18 Norte 0 -- -- 74
2017-07-28 13:00:00 28.7 8 Norte 15 Norte 0 -- -- 74
2017-07-28 12:00:00 28.6 8 Norte 14 Norte 0 -- -- 78
2017-07-28 11:00:00 28.1 4 Norte 8 Norte 0 -- -- 78
2017-07-28 10:00:00 27.9 4 Norte 7 Norte 0 -- -- 79
2017-07-28 09:00:00 28.3 3 Norte 9 Sur 0 -- -- 66
2017-07-28 08:00:00 25.4 4 Sudeste 12 Sur 0 -- -- 64
2017-07-28 07:00:00 23.8 7 Sur 12 Sur 0 -- -- 55
2017-07-28 06:00:00 24.2 6 Sur 18 Sur 0 -- -- 59
2017-07-28 05:00:00 24.4 9 Sur 12 Sur 0 -- -- 45
2017-07-28 04:00:00 24.7 9 Sur 13 Sur 0 -- -- 47
2017-07-28 03:00:00 24.8 6 Sur 13 Sur 0 -- -- 50
2017-07-28 02:00:00 25.4 6 Sudeste 14 Sur 0 -- -- 45
2017-07-28 01:00:00 25.7 8 Sur 13 Sur 0 -- -- 43
2017-07-28 00:00:00 26.2 8 Sur 12 Sur 0 -- -- 46
2017-07-27 23:00:00 26.3 10 Sur 13 Sur 0 -- -- 48
2017-07-27 22:00:00 27.1 8 Sur 12 Sur 0 -- -- 49
2017-07-27 21:00:00 29.3 6 Norte 17 Sur 0 -- -- 49
2017-07-27 20:00:00 32.9 14 Sur 26 Sur 0 -- -- 29
2017-07-27 19:00:00 33 4 Nordeste 15 Oeste 0 -- -- 39
2017-07-27 18:00:00 31.8 5 Norte 12 Norte 0 -- -- 50
2017-07-27 17:00:00 30.7 8 Norte 12 Norte 0 -- -- 59
2017-07-27 16:00:00 30.4 8 Norte 13 Norte 0 -- -- 61
2017-07-27 15:00:00 29.2 6 Norte 11 Norte 0 -- -- 68
2017-07-27 14:00:00 28.5 6 Norte 12 Norte 0 -- -- 67
2017-07-27 13:00:00 27.6 7 Norte 16 Norte 0 -- -- 66
2017-07-27 12:00:00 27.5 6 Norte 12 Norte 0 -- -- 65
2017-07-27 11:00:00 27.6 3 Nordeste 9 Norte 0 -- -- 63
2017-07-27 10:00:00 27.2 3 Norte 6 Norte 0 -- -- 55
2017-07-27 09:00:00 28.2 2 Este 8 Sur 0 -- -- 44
2017-07-27 08:00:00 23.2 5 Sudeste 13 Sur 0 -- -- 62
2017-07-27 07:00:00 21.1 9 Sur 13 Sur 0 -- -- 68
2017-07-27 06:00:00 21.1 9 Sur 13 Sur 0 -- -- 64
2017-07-27 05:00:00 21.3 7 Sur 12 Sur 0 -- -- 63
2017-07-27 04:00:00 21.5 9 Sur 13 Sur 0 -- -- 77
2017-07-27 03:00:00 21.5 9 Sur 13 Sur 0 -- -- 73
2017-07-27 02:00:00 21.7 9 Sudoeste 15 Sur 0 -- -- 72
2017-07-27 01:00:00 21.5 9 Sur 14 Sudoeste 0 -- -- 57
2017-07-27 00:00:00 22.1 4 Sur 10 Sur 0 -- -- 51
2017-07-26 23:00:00 21.7 8 Sur 13 Sur 0 -- -- 49
2017-07-26 22:00:00 21.6 8 Sur 11 Sur 0 -- -- 53
2017-07-26 21:00:00 23.8 4 Norte 9 Noroeste 0 -- -- 65
2017-07-26 20:00:00 25.8 3 Noroeste 9 Norte 0 -- -- 60
2017-07-26 19:00:00 25.6 7 Norte 16 Norte 0 -- -- 61
2017-07-26 18:00:00 26.7 8 Noroeste 19 Sudoeste 0 -- -- 54
2017-07-26 17:00:00 26.1 11 Oeste 20 Oeste 0 -- -- 55
2017-07-26 16:00:00 27 8 Oeste 18 Oeste 0 -- -- 49
2017-07-26 15:00:00 26.2 10 Oeste 18 Noroeste 0 -- -- 60
2017-07-26 14:00:00 26.7 9 Noroeste 18 Noroeste 0 -- -- 66
2017-07-26 13:00:00 26.2 7 Norte 13 Norte 0 -- -- 68
2017-07-26 12:00:00 26.3 7 Norte 12 Norte 0 -- -- 69
2017-07-26 11:00:00 25.2 8 Norte 17 Noroeste 0 -- -- 72
2017-07-26 10:00:00 24.8 4 Norte 14 Sudoeste 0 -- -- 74
2017-07-26 09:00:00 24 5 Sur 15 Sur 0 -- -- 88
2017-07-26 08:00:00 22.4 6 Oeste 24 Norte 0 -- -- 93
2017-07-26 07:00:00 23.7 12 Sur 30 Sudoeste 0 -- -- 79
2017-07-26 06:00:00 23.9 17 Sur 33 Sur 0 -- -- 75
2017-07-26 05:00:00 23.7 16 Sur 34 Sur 0 -- -- 75
2017-07-26 04:00:00 23.6 18 Sur 38 Sur 0 -- -- 76
2017-07-26 03:00:00 23.6 18 Sur 31 Sur 0 -- -- 75
2017-07-26 02:00:00 23.5 15 Sur 31 Sur 0 -- -- 76
2017-07-26 01:00:00 23.6 16 Sur 32 Sudeste 0 -- -- 75
2017-07-26 00:00:00 23.6 14 Sur 30 Sudoeste 0 -- -- 76
2017-07-25 23:00:00 23.9 14 Sur 29 Sur 0 -- -- 76
2017-07-25 22:00:00 23.8 5 Sur 10 Sur 0 -- -- 84
2017-07-25 21:00:00 24.3 5 Norte 16 Norte 0 -- -- 85
2017-07-25 20:00:00 25.1 9 Norte 19 Este 0 -- -- 79
2017-07-25 19:00:00 26.9 8 Norte 33 Noroeste 0 -- -- 71
2017-07-25 18:00:00 26.7 7 Norte 14 Norte 0 -- -- 73
2017-07-25 17:00:00 27.1 4 Norte 15 Norte 0 -- -- 69
2017-07-25 16:00:00 26.1 8 Noroeste 21 Noroeste 0 -- -- 73
2017-07-25 15:00:00 25.9 9 Oeste 17 Oeste 0 -- -- 73
2017-07-25 14:00:00 26 6 Noroeste 19 Norte 0 -- -- 72
2017-07-25 13:00:00 25 11 Noroeste 25 Noroeste 0 -- -- 76
2017-07-25 12:00:00 25.6 12 Oeste 22 Oeste 0 -- -- 74
2017-07-25 11:00:00 24.9 9 Oeste 18 Sudoeste 0 -- -- 76
2017-07-25 10:00:00 24.8 5 Noroeste 21 Norte 0 -- -- 77
2017-07-25 09:00:00 24.6 5 Noroeste 14 Noroeste 0 -- -- 78
2017-07-25 08:00:00 24.7 5 Sudoeste 12 Sur 0 -- -- 77
2017-07-25 07:00:00 23.4 8 Sur 14 Sur 0 -- -- 79
2017-07-25 06:00:00 22.8 9 Sur 14 Sur 0 -- -- 76
2017-07-25 05:00:00 23.1 9 Sur 12 Sur 0 -- -- 73
2017-07-25 04:00:00 25.1 4 Noroeste 22 Noroeste 0 -- -- 68
2017-07-25 03:00:00 25.3 6 Oeste 30 Noroeste 0 -- -- 70
2017-07-25 02:00:00 26.4 9 Noroeste 19 Noroeste 0 -- -- 71
2017-07-25 01:00:00 26.3 9 Sudoeste 19 Sudoeste 0 -- -- 59
2017-07-25 00:00:00 24.7 10 Sur 17 Sudeste 0 -- -- 58
2017-07-24 23:00:00 24.8 8 Sur 15 Sur 0 -- -- 52
2017-07-24 22:00:00 25.9 9 Sur 16 Sudoeste 0 -- -- 49
2017-07-24 21:00:00 28.2 6 Sur 12 Oeste 0 -- -- 45
2017-07-24 20:00:00 30 5 Noroeste 15 Norte 0 -- -- 46
2017-07-24 19:00:00 29.9 5 Noroeste 12 Oeste 0 -- -- 48
2017-07-24 18:00:00 29.7 4 Norte 12 Oeste 0 -- -- 51
2017-07-24 17:00:00 29.5 5 Noroeste 14 Oeste 0 -- -- 51
2017-07-24 16:00:00 28.3 6 Norte 13 Norte 0 -- -- 58
2017-07-24 15:00:00 27.9 5 Norte 11 Noroeste 0 -- -- 58
2017-07-24 14:00:00 27.8 9 Norte 14 Noroeste 0 -- -- 68
2017-07-24 13:00:00 27.5 12 Norte 20 Noroeste 0 -- -- 79
2017-07-24 12:00:00 28.4 5 Noroeste 13 Noroeste 0 -- -- 75
2017-07-24 11:00:00 27 6 Norte 12 Norte 0 -- -- 80
2017-07-24 10:00:00 27.2 5 Oeste 8 Sudoeste 0 -- -- 79
2017-07-24 09:00:00 26.6 2 Norte 5 Norte 0 -- -- 88
2017-07-24 08:00:00 24.5 3 Sudeste 10 Sur 0 -- -- 97
2017-07-24 07:00:00 22.5 6 Sur 12 Sur 0 -- -- 98
2017-07-24 06:00:00 22.5 5 Sur 10 Sur 0 -- -- 99
2017-07-24 05:00:00 24.1 5 Sudeste 14 Norte 0 -- -- 100
2017-07-24 04:00:00 24.7 9 Norte 15 Norte 0 -- -- 100
2017-07-24 03:00:00 24.8 8 Norte 18 Norte 0 -- -- 99
2017-07-24 02:00:00 24.2 5 Sur 9 Sur 0 -- -- 93
2017-07-24 01:00:00 23.5 6 Sur 12 Sur 0 -- -- 85
2017-07-24 00:00:00 23.8 9 Sur 15 Sur 0 -- -- 82
2017-07-23 23:00:00 24.1 8 Sur 14 Sur 0 -- -- 79
2017-07-23 22:00:00 24.6 8 Sudoeste 17 Sudeste 0 -- -- 74
2017-07-23 21:00:00 26.1 4 Sudeste 12 Sudeste 0 -- -- 82
2017-07-23 20:00:00 26.3 6 Nordeste 24 Norte 0 -- -- 94
2017-07-23 19:00:00 27 16 Norte 27 Norte 0 -- -- 92
2017-07-23 18:00:00 26.5 4 Noroeste 12 Oeste 0 -- -- 95
2017-07-23 17:00:00 26.7 5 Noroeste 21 Sudoeste 0 -- -- 93
2017-07-23 16:00:00 27.1 12 Oeste 21 Sudoeste 0 -- -- 91
2017-07-23 15:00:00 27 12 Oeste 28 Oeste 0 -- -- 87
2017-07-23 14:00:00 26.6 9 Oeste 22 Oeste 0 -- -- 92
2017-07-23 13:00:00 26.9 12 Oeste 27 Noroeste 0 -- -- 86
2017-07-23 12:00:00 26.7 8 Noroeste 37 Sudoeste 0 -- -- 83
2017-07-23 11:00:00 27.2 8 Oeste 30 Sudoeste 0 -- -- 78
2017-07-23 10:00:00 26.9 9 Oeste 15 Oeste 0 -- -- 76
2017-07-23 09:00:00 26.7 6 Nordeste 17 Oeste 0 -- -- 74
2017-07-23 08:00:00 24.4 6 Sur 18 Sudoeste 0 -- -- 77
2017-07-23 07:00:00 23.7 6 Sudeste 15 Sudeste 0 -- -- 99
2017-07-23 06:00:00 24.8 8 Sudeste 20 Sudeste 0 -- -- 100
2017-07-23 05:00:00 23.5 8 Sudeste 14 Sudeste 0 -- -- 100
2017-07-23 04:00:00 23.6 8 Sur 14 Sur 0 -- -- 98
2017-07-23 03:00:00 23.3 8 Sur 11 Sur 0 -- -- 96
2017-07-23 02:00:00 23.9 8 Sur 12 Sur 0 -- -- 96
2017-07-23 01:00:00 24.3 8 Sur 18 Sudeste 0 -- -- 88
2017-07-23 00:00:00 24.4 9 Sudeste 14 Sudeste 0 -- -- 83
2017-07-22 23:00:00 25.5 4 Sur 21 Norte 0 -- -- 85
2017-07-22 22:00:00 25.2 4 Sur 19 Sudoeste 0 -- -- 92
2017-07-22 21:00:00 26.1 5 Norte 7 Norte 0 -- -- 94
2017-07-22 20:00:00 26.4 5 Norte 9 Norte 0 -- -- 92
2017-07-22 19:00:00 27.2 5 Norte 12 Norte 0 -- -- 90
2017-07-22 18:00:00 27 5 Noroeste 13 Oeste 0 -- -- 90
2017-07-22 17:00:00 27 7 Nordeste 12 Nordeste 0 -- -- 91
2017-07-22 16:00:00 27.2 7 Nordeste 14 Norte 0 -- -- 89
2017-07-22 15:00:00 26.9 8 Norte 13 Norte 0 -- -- 91
2017-07-22 14:00:00 27.2 7 Norte 12 Norte 0 -- -- 89
2017-07-22 13:00:00 27.6 9 Norte 12 Norte 0 -- -- 86
2017-07-22 12:00:00 28 8 Norte 15 Noroeste 0 -- -- 85
2017-07-22 11:00:00 28 6 Noroeste 15 Norte 0 -- -- 85
2017-07-22 10:00:00 28 7 Oeste 12 Sudoeste 0 -- -- 80
2017-07-22 09:00:00 27.9 3 Norte 17 Nordeste 0 -- -- 77
2017-07-22 08:00:00 25.6 6 Sudeste 13 Sudeste 0 -- -- 92
2017-07-22 07:00:00 23.2 6 Sudeste 10 Sur 0 -- -- 99
2017-07-22 06:00:00 23.4 6 Sur 10 Sur 0 -- -- 100
2017-07-22 05:00:00 23.1 9 Sur 13 Sudoeste 0 -- -- 100
2017-07-22 04:00:00 23.4 4 Sur 10 Sur 0 -- -- 99
2017-07-22 03:00:00 23.5 6 Sur 10 Sur 0 -- -- 100
2017-07-22 02:00:00 24 6 Sur 9 Sur 0 -- -- 100
2017-07-22 01:00:00 24.9 3 Sudeste 8 Sudeste 0 -- -- 96
2017-07-22 00:00:00 24.6 6 Sur 10 Sur 0 -- -- 96
2017-07-21 23:00:00 24.9 4 Sur 12 Sur 0 -- -- 98
2017-07-21 22:00:00 25.7 4 Nordeste 8 Norte 0 -- -- 96
2017-07-21 21:00:00 26.3 2 Norte 12 Norte 0 -- -- 90
2017-07-21 20:00:00 27.5 6 Nordeste 13 Norte 0 -- -- 87
2017-07-21 19:00:00 26.2 9 Nordeste 19 Nordeste 0 -- -- 90
2017-07-21 18:00:00 26.1 12 Nordeste 21 Nordeste 0 -- -- 92
2017-07-21 17:00:00 26.3 14 Nordeste 22 Nordeste 0 -- -- 89
2017-07-21 16:00:00 26.6 6 Norte 17 Nordeste 0 -- -- 85
2017-07-21 15:00:00 26.3 10 Norte 17 Norte 0 -- -- 92
2017-07-21 14:00:00 25.8 9 Norte 15 Norte 0 -- -- 93
2017-07-21 13:00:00 25.8 6 Norte 17 Norte 0 -- -- 91
2017-07-21 12:00:00 26.5 10 Norte 18 Norte 0 -- -- 90
2017-07-21 11:00:00 26.1 9 Nordeste 18 Norte 0 -- -- 91
2017-07-21 10:00:00 26.4 10 Norte 24 Nordeste 0 -- -- 88
2017-07-21 09:00:00 25.5 13 Nordeste 23 Nordeste 0 -- -- 93
2017-07-21 08:00:00 24.5 13 Nordeste 28 Nordeste 0 -- -- 94
2017-07-21 07:00:00 24.4 12 Nordeste 25 Nordeste 0 -- -- 97
2017-07-21 06:00:00 24.7 13 Nordeste 21 Nordeste 0 -- -- 98
2017-07-21 05:00:00 24.9 12 Nordeste 22 Nordeste 0 -- -- 99
2017-07-21 04:00:00 25 13 Nordeste 26 Nordeste 0 -- -- 100
2017-07-21 03:00:00 25.1 15 Nordeste 30 Nordeste 0 -- -- 100
2017-07-21 02:00:00 24.6 4 Sur 12 Sur 0 -- -- 100
2017-07-21 01:00:00 24 6 Sur 11 Sudoeste 0 -- -- 100
2017-07-21 00:00:00 25 5 Sudoeste 21 Nordeste 0 -- -- 100
2017-07-20 23:00:00 25.7 14 Nordeste 26 Nordeste 0 -- -- 100
2017-07-20 22:00:00 25.7 15 Nordeste 27 Nordeste 0 -- -- 100
2017-07-20 21:00:00 25.8 16 Nordeste 26 Nordeste 0 -- -- 100
2017-07-20 20:00:00 26.4 16 Nordeste 25 Nordeste 0 -- -- 94
2017-07-20 19:00:00 27.1 15 Nordeste 26 Nordeste 0 -- -- 89
2017-07-20 18:00:00 27.2 17 Nordeste 31 Nordeste 0 -- -- 89
2017-07-20 17:00:00 27.6 14 Nordeste 23 Nordeste 0 -- -- 88
2017-07-20 16:00:00 27.4 12 Nordeste 20 Nordeste 0 -- -- 89
2017-07-20 15:00:00 28.1 11 Nordeste 19 Nordeste 0 -- -- 87
2017-07-20 14:00:00 27.9 11 Nordeste 18 Norte 0 -- -- 88
2017-07-20 13:00:00 27.3 6 Norte 10 Noroeste 0 -- -- 90
2017-07-20 12:00:00 27.1 4 Norte 9 Norte 0 -- -- 92
2017-07-20 11:00:00 27.1 6 Norte 9 Noroeste 0 -- -- 93
2017-07-20 10:00:00 27.2 5 Norte 18 Nordeste 0 -- -- 86
2017-07-20 09:00:00 26 12 Nordeste 25 Nordeste 0 -- -- 93
2017-07-20 08:00:00 25.6 16 Nordeste 26 Nordeste 0 -- -- 97
2017-07-20 07:00:00 25.6 10 Nordeste 36 Este 0 -- -- 97
2017-07-20 06:00:00 25.3 8 Este 18 Este 0 -- -- 93
2017-07-20 05:00:00 24.6 4 Sudeste 18 Este 0 -- -- 86
2017-07-20 04:00:00 24.2 8 Sur 14 Sudeste 0 -- -- 76
2017-07-20 03:00:00 25 6 Sur 15 Sudeste 0 -- -- 71
2017-07-20 02:00:00 25.2 8 Sur 12 Sudoeste 0 -- -- 71
2017-07-20 01:00:00 25.6 7 Sudoeste 22 Sudoeste 0 -- -- 72
2017-07-20 00:00:00 26.5 3 Norte 46 Sudoeste 0 -- -- 72
2017-07-19 23:00:00 27 5 Oeste 19 Noroeste 0 -- -- 67
2017-07-19 22:00:00 27 5 Noroeste 14 Norte 0 -- -- 68
2017-07-19 21:00:00 27.2 3 Norte 13 Norte 0 -- -- 66
2017-07-19 20:00:00 28.4 9 Norte 23 Nordeste 0 -- -- 63
2017-07-19 19:00:00 28.1 13 Norte 25 Norte 0 -- -- 72
2017-07-19 18:00:00 28.3 14 Norte 24 Norte 0 -- -- 73
2017-07-19 17:00:00 28.5 12 Norte 22 Norte 0 -- -- 74
2017-07-19 16:00:00 29.2 12 Oeste 48 Este 0 -- -- 69
2017-07-19 15:00:00 28.9 6 Noroeste 22 Oeste 0 -- -- 70
2017-07-19 14:00:00 28.5 18 Oeste 52 Sudeste 0 -- -- 65
2017-07-19 13:00:00 31.7 26 Sudeste 45 Este 0 -- -- 46
2017-07-19 12:00:00 27.2 18 Norte 35 Nordeste 0 -- -- 84
2017-07-19 11:00:00 26.6 21 Nordeste 37 Nordeste 0 -- -- 90
2017-07-19 10:00:00 26.5 22 Nordeste 36 Nordeste 0 -- -- 86
2017-07-19 09:00:00 26.6 21 Nordeste 30 Nordeste 0 -- -- 62
2017-07-19 08:00:00 24.7 6 Sur 13 Sur 0 -- -- 50
2017-07-19 07:00:00 23.7 9 Sur 14 Sur 0 -- -- 50
2017-07-19 06:00:00 24 8 Sur 20 Norte 0 -- -- 49
2017-07-19 05:00:00 26.3 9 Nordeste 17 Nordeste 0 -- -- 47
2017-07-19 04:00:00 25.1 7 Sudoeste 15 Sur 0 -- -- 49
2017-07-19 03:00:00 25.4 5 Sudeste 22 Nordeste 0 -- -- 52
2017-07-19 02:00:00 25.2 6 Oeste 14 Sudeste 0 -- -- 51
2017-07-19 01:00:00 25.6 6 Sur 23 Nordeste 0 -- -- 60
2017-07-19 00:00:00 25.4 7 Este 19 Este 0 -- -- 80